createdAt,value
2019-06-27T00:00:48.325Z,10.10
2019-06-27T00:03:20.040Z,9.70
2019-06-27T00:05:51.771Z,8.90
2019-06-27T00:08:23.371Z,9.40
2019-06-27T00:10:54.954Z,9.30
2019-06-27T00:13:26.674Z,7.60
2019-06-27T00:15:58.362Z,7.80
2019-06-27T00:18:29.978Z,8.50
2019-06-27T00:21:01.629Z,9.40
2019-06-27T00:23:33.338Z,11.30
2019-06-27T00:26:05.086Z,11.70
2019-06-27T00:28:36.689Z,11.20
2019-06-27T00:31:08.334Z,11.60
2019-06-27T00:33:40.067Z,12.20
2019-06-27T00:36:11.702Z,11.80
2019-06-27T00:38:43.350Z,13.30
2019-06-27T00:41:15.124Z,13.20
2019-06-27T00:43:46.715Z,14.60
2019-06-27T00:46:18.345Z,15.20
2019-06-27T00:48:49.949Z,14.10
2019-06-27T00:51:21.612Z,13.70
2019-06-27T00:53:53.194Z,14.20
2019-06-27T00:56:24.911Z,15.50
2019-06-27T00:58:57.606Z,15.30
2019-06-27T01:01:29.306Z,16.60
2019-06-27T01:04:00.982Z,16.20
2019-06-27T01:06:32.636Z,17.00
2019-06-27T01:09:05.291Z,18.50
2019-06-27T01:11:37.006Z,18.30
2019-06-27T01:14:08.606Z,18.50
2019-06-27T01:16:40.299Z,19.00
2019-06-27T01:19:11.895Z,18.90
2019-06-27T01:21:43.610Z,18.70
2019-06-27T01:24:15.271Z,17.30
2019-06-27T01:26:46.898Z,16.70
2019-06-27T01:29:18.523Z,17.50
2019-06-27T01:31:50.308Z,16.10
2019-06-27T01:34:21.965Z,17.30
2019-06-27T01:36:54.374Z,18.10
2019-06-27T01:39:26.037Z,18.20
2019-06-27T01:41:57.662Z,18.20
2019-06-27T01:44:55.040Z,18.60
2019-06-27T01:47:26.646Z,18.30
2019-06-27T01:49:58.310Z,17.90
2019-06-27T01:52:29.961Z,17.50
2019-06-27T01:55:01.621Z,17.70
2019-06-27T01:57:46.016Z,18.50
2019-06-27T02:00:08.630Z,18.10
2019-06-27T02:02:40.459Z,18.80
2019-06-27T02:05:13.329Z,18.60
2019-06-27T02:07:45.010Z,15.40
2019-06-27T02:10:16.807Z,15.10
2019-06-27T02:12:48.534Z,14.20
2019-06-27T02:15:22.277Z,13.30
2019-06-27T02:17:54.141Z,12.70
2019-06-27T02:20:26.739Z,14.30
2019-06-27T02:22:58.372Z,13.00
2019-06-27T02:25:30.146Z,13.90
2019-06-27T02:28:04.361Z,13.30
2019-06-27T02:30:43.237Z,14.70
2019-06-27T02:33:15.032Z,14.60
2019-06-27T02:35:46.727Z,14.90
2019-06-27T02:38:19.566Z,15.90
2019-06-27T02:40:51.275Z,15.00
2019-06-27T02:43:22.982Z,17.20
2019-06-27T02:45:54.700Z,17.30
2019-06-27T02:48:26.449Z,15.10
2019-06-27T02:50:58.072Z,14.50
2019-06-27T02:53:29.776Z,14.80
2019-06-27T02:56:01.395Z,15.10
2019-06-27T02:58:33.045Z,16.40
2019-06-27T03:01:04.700Z,15.90
2019-06-27T03:03:36.360Z,13.50
2019-06-27T03:06:08.040Z,14.60
2019-06-27T03:08:39.641Z,13.50
2019-06-27T03:11:11.539Z,14.20
2019-06-27T03:13:43.230Z,13.20
2019-06-27T03:16:14.873Z,13.30
2019-06-27T03:18:46.538Z,13.00
2019-06-27T03:21:18.202Z,11.70
2019-06-27T03:23:49.826Z,21.70
2019-06-27T03:26:21.700Z,11.70
2019-06-27T03:28:54.197Z,11.80
2019-06-27T03:31:26.960Z,12.40
2019-06-27T03:33:58.657Z,11.60
2019-06-27T03:36:30.374Z,12.20
2019-06-27T03:39:06.133Z,12.10
2019-06-27T03:41:37.705Z,11.20
2019-06-27T03:44:10.467Z,11.40
2019-06-27T03:46:43.105Z,10.70
2019-06-27T03:49:14.764Z,11.10
2019-06-27T03:51:46.481Z,10.20
2019-06-27T03:54:18.166Z,21.70
2019-06-27T03:56:49.806Z,12.00
2019-06-27T03:59:21.423Z,12.10
2019-06-27T04:01:53.041Z,11.90
2019-06-27T04:04:24.693Z,11.60
2019-06-27T04:06:56.306Z,12.70
2019-06-27T04:09:27.966Z,11.90
2019-06-27T04:11:59.581Z,12.50
2019-06-27T04:14:31.549Z,9.80
2019-06-27T04:17:03.147Z,9.80
2019-06-27T04:19:34.765Z,10.30
2019-06-27T04:22:06.529Z,11.30
2019-06-27T04:24:38.206Z,8.70
2019-06-27T04:27:10.862Z,9.40
2019-06-27T04:29:42.861Z,9.10
2019-06-27T04:32:14.518Z,9.70
2019-06-27T04:34:46.202Z,10.10
2019-06-27T04:37:17.835Z,8.40
2019-06-27T04:39:49.481Z,8.10
2019-06-27T04:42:21.140Z,8.30
2019-06-27T04:44:52.760Z,7.20
2019-06-27T04:47:24.414Z,6.60
2019-06-27T04:49:56.071Z,6.30
2019-06-27T04:52:27.821Z,5.80
2019-06-27T04:55:03.074Z,5.40
2019-06-27T04:57:32.855Z,5.60
2019-06-27T05:00:04.679Z,5.90
2019-06-27T05:02:36.566Z,4.50
2019-06-27T05:05:08.197Z,4.80
2019-06-27T05:07:39.989Z,4.00
2019-06-27T05:10:11.637Z,4.00
2019-06-27T05:12:43.438Z,3.90
2019-06-27T05:15:15.304Z,4.10
2019-06-27T05:17:47.912Z,3.20
2019-06-27T05:20:19.642Z,3.20
2019-06-27T05:22:51.252Z,3.40
2019-06-27T05:25:22.937Z,2.60
2019-06-27T05:27:54.602Z,3.90
2019-06-27T05:30:26.334Z,4.20
2019-06-27T05:32:58.365Z,2.80
2019-06-27T05:35:30.251Z,4.20
2019-06-27T05:38:02.132Z,3.50
2019-06-27T05:40:34.168Z,3.40
2019-06-27T05:43:08.484Z,2.80
2019-06-27T05:45:40.249Z,1.00
2019-06-27T05:48:11.907Z,1.00
2019-06-27T05:50:43.817Z,1.00
2019-06-27T05:53:15.477Z,1.00
2019-06-27T05:55:47.249Z,1.40
2019-06-27T05:58:18.851Z,1.70
2019-06-27T06:00:50.661Z,1.00
2019-06-27T06:03:22.505Z,1.00
2019-06-27T06:05:54.127Z,1.00
2019-06-27T06:08:25.775Z,1.00
2019-06-27T06:10:57.435Z,1.00
2019-06-27T06:13:29.139Z,1.00
2019-06-27T06:16:01.764Z,1.00
2019-06-27T06:18:33.473Z,1.00
2019-06-27T06:21:05.137Z,1.00
2019-06-27T06:23:37.147Z,1.00
2019-06-27T06:26:08.926Z,1.00
2019-06-27T06:28:40.901Z,1.00
2019-06-27T06:31:15.473Z,1.00
2019-06-27T06:33:47.145Z,1.00
2019-06-27T06:36:18.883Z,1.00
2019-06-27T06:38:50.505Z,1.00
2019-06-27T06:41:22.375Z,1.00
2019-06-27T06:43:53.993Z,1.00
2019-06-27T06:46:25.644Z,8.60
2019-06-27T06:48:57.272Z,1.00
2019-06-27T06:51:28.988Z,1.00
2019-06-27T06:54:00.948Z,1.00
2019-06-27T06:56:32.714Z,1.00
2019-06-27T06:59:04.700Z,1.00
2019-06-27T07:01:36.523Z,1.00
2019-06-27T07:04:08.593Z,1.00
2019-06-27T07:06:40.473Z,1.00
2019-06-27T07:09:13.941Z,1.00
2019-06-27T07:11:45.588Z,1.00
2019-06-27T07:14:17.208Z,1.00
2019-06-27T07:16:49.358Z,1.00
2019-06-27T07:19:21.080Z,1.00
2019-06-27T07:21:52.697Z,1.00
2019-06-27T07:24:24.585Z,1.00
2019-06-27T07:26:56.556Z,1.00
2019-06-27T07:29:28.502Z,1.00
2019-06-27T07:32:00.210Z,1.00
2019-06-27T07:34:32.063Z,1.00
2019-06-27T07:37:03.789Z,1.00
2019-06-27T07:39:35.527Z,1.00
2019-06-27T07:42:07.316Z,1.00
2019-06-27T07:44:39.047Z,1.00
2019-06-27T07:47:10.788Z,1.00
2019-06-27T07:49:42.489Z,1.00
2019-06-27T07:52:14.269Z,1.00
2019-06-27T07:54:46.043Z,1.00
2019-06-27T07:57:17.934Z,1.00
2019-06-27T07:59:49.588Z,1.00
2019-06-27T08:02:21.300Z,1.00
2019-06-27T08:04:53.084Z,1.00
2019-06-27T08:07:24.727Z,1.00
2019-06-27T08:09:57.345Z,1.00
2019-06-27T08:12:29.095Z,1.00
2019-06-27T08:15:00.793Z,1.00
2019-06-27T08:17:32.625Z,1.00
2019-06-27T08:20:04.309Z,1.00
2019-06-27T08:22:36.090Z,1.00
2019-06-27T08:25:08.529Z,1.00
2019-06-27T08:27:40.760Z,1.00
2019-06-27T08:30:13.777Z,1.00
2019-06-27T08:32:45.491Z,1.00
2019-06-27T08:35:19.336Z,1.00
2019-06-27T08:37:51.042Z,1.00
2019-06-27T08:40:22.836Z,1.00
2019-06-27T08:42:54.458Z,1.00
2019-06-27T08:45:26.082Z,1.00
2019-06-27T08:47:57.722Z,1.00
2019-06-27T08:50:30.407Z,1.00
2019-06-27T08:53:05.530Z,1.00
2019-06-27T08:55:37.329Z,1.00
2019-06-27T08:58:09.108Z,1.00
2019-06-27T09:00:41.102Z,1.00
2019-06-27T09:03:13.741Z,1.00
2019-06-27T09:05:45.420Z,1.00
2019-06-27T09:08:17.259Z,1.00
2019-06-27T09:10:48.935Z,1.00
2019-06-27T09:13:20.804Z,1.00
2019-06-27T09:15:52.735Z,1.00
2019-06-27T09:18:24.445Z,1.00
2019-06-27T09:20:56.212Z,1.00
2019-06-27T09:23:28.055Z,1.00
2019-06-27T09:25:59.796Z,1.00
2019-06-27T09:28:34.872Z,1.00
2019-06-27T09:31:06.774Z,1.10
2019-06-27T09:33:38.679Z,1.00
2019-06-27T09:36:10.628Z,1.00
2019-06-27T09:38:43.237Z,1.00
2019-06-27T09:41:14.870Z,1.60
2019-06-27T09:43:46.621Z,1.20
2019-06-27T09:46:18.443Z,2.00
2019-06-27T09:48:50.399Z,2.70
2019-06-27T09:51:21.962Z,1.50
2019-06-27T09:53:53.608Z,1.00
2019-06-27T09:56:26.229Z,1.00
2019-06-27T09:58:57.853Z,1.00
2019-06-27T10:01:29.467Z,1.00
2019-06-27T10:04:01.085Z,1.00
2019-06-27T10:06:32.989Z,1.00
2019-06-27T10:09:06.117Z,1.00
2019-06-27T10:11:37.936Z,1.00
2019-06-27T10:14:09.796Z,1.00
2019-06-27T10:16:41.401Z,1.00
2019-06-27T10:19:13.445Z,1.00
2019-06-27T10:21:45.404Z,1.00
2019-06-27T10:24:17.008Z,1.00
2019-06-27T10:26:48.822Z,1.00
2019-06-27T10:29:20.491Z,1.00
2019-06-27T10:31:52.252Z,1.00
2019-06-27T10:34:25.042Z,1.00
2019-06-27T10:36:56.855Z,1.00
2019-06-27T10:39:28.449Z,1.00
2019-06-27T10:42:00.150Z,1.00
2019-06-27T10:44:31.862Z,1.00
2019-06-27T10:47:03.784Z,1.00
2019-06-27T10:49:35.586Z,1.00
2019-06-27T10:52:07.331Z,1.00
2019-06-27T10:54:39.297Z,1.00
2019-06-27T10:57:11.328Z,1.00
2019-06-27T10:59:43.326Z,1.00
2019-06-27T11:02:15.047Z,1.00
2019-06-27T11:04:46.939Z,1.00
2019-06-27T11:07:18.645Z,1.00
2019-06-27T11:09:50.465Z,1.00
2019-06-27T11:12:22.131Z,1.00
2019-06-27T11:14:59.139Z,1.00
2019-06-27T11:17:27.461Z,1.00
2019-06-27T11:19:59.394Z,1.00
2019-06-27T11:22:31.317Z,1.00
2019-06-27T11:25:03.014Z,1.00
2019-06-27T11:27:34.807Z,1.00
2019-06-27T11:30:07.278Z,1.00
2019-06-27T11:32:38.991Z,1.00
2019-06-27T11:35:10.927Z,1.00
2019-06-27T11:37:42.995Z,1.00
2019-06-27T11:40:15.345Z,1.00
2019-06-27T11:42:47.097Z,1.00
2019-06-27T11:45:18.937Z,1.00
2019-06-27T11:47:50.650Z,1.00
2019-06-27T11:50:22.303Z,1.00
2019-06-27T11:52:54.129Z,1.00
2019-06-27T11:55:25.901Z,1.00
2019-06-27T11:57:57.520Z,1.00
2019-06-27T12:00:29.323Z,1.00
2019-06-27T12:03:01.196Z,1.00
2019-06-27T12:05:32.888Z,1.00
2019-06-27T12:08:04.866Z,1.00
2019-06-27T12:10:36.830Z,1.00
2019-06-27T12:13:08.818Z,1.00
2019-06-27T12:15:40.512Z,1.00
2019-06-27T12:18:12.319Z,1.00
2019-06-27T12:20:44.353Z,1.00
2019-06-27T12:23:16.297Z,1.00
2019-06-27T12:25:48.175Z,1.00
2019-06-27T12:28:19.950Z,1.00
2019-06-27T12:30:51.797Z,1.00
2019-06-27T12:33:23.871Z,1.00
2019-06-27T12:35:56.043Z,1.00
2019-06-27T12:38:28.010Z,1.00
2019-06-27T12:41:01.469Z,1.00
2019-06-27T12:43:33.124Z,1.00
2019-06-27T12:46:04.879Z,1.00
2019-06-27T12:48:37.196Z,1.00
2019-06-27T12:51:09.239Z,1.00
2019-06-27T12:53:40.970Z,1.00
2019-06-27T12:56:12.631Z,1.00
2019-06-27T12:58:44.411Z,1.00
2019-06-27T13:01:16.225Z,1.00
2019-06-27T13:03:48.110Z,1.00
2019-06-27T13:06:20.057Z,1.00
2019-06-27T13:08:52.187Z,1.00
2019-06-27T13:11:23.885Z,1.00
2019-06-27T13:13:55.853Z,1.00
2019-06-27T13:16:30.914Z,1.00
2019-06-27T13:19:01.162Z,1.00
2019-06-27T13:21:33.036Z,1.00
2019-06-27T13:24:04.966Z,1.00
2019-06-27T13:26:37.180Z,1.00
2019-06-27T13:29:08.915Z,1.00
2019-06-27T13:31:40.787Z,1.00
2019-06-27T13:34:12.593Z,1.00
2019-06-27T13:36:44.327Z,1.00
2019-06-27T13:39:16.966Z,1.00
2019-06-27T13:41:48.726Z,1.00
2019-06-27T13:44:20.583Z,1.00
2019-06-27T13:46:52.310Z,1.00
2019-06-27T13:49:26.176Z,1.00
2019-06-27T13:51:58.016Z,1.00
2019-06-27T13:54:29.818Z,1.00
2019-06-27T13:57:02.504Z,1.00
2019-06-27T13:59:34.216Z,1.00
2019-06-27T14:02:05.825Z,1.00
2019-06-27T14:04:37.700Z,1.00
2019-06-27T14:07:09.568Z,1.00
2019-06-27T14:09:52.360Z,1.00
2019-06-27T14:12:14.632Z,1.00
2019-06-27T14:14:59.370Z,1.00
2019-06-27T14:17:19.817Z,1.00
2019-06-27T14:19:51.511Z,1.00
2019-06-27T14:22:33.644Z,1.00
2019-06-27T14:24:56.526Z,1.00
2019-06-27T14:27:28.568Z,1.00
2019-06-27T14:30:00.352Z,1.00
2019-06-27T14:32:32.706Z,1.00
2019-06-27T14:35:14.883Z,1.00
2019-06-27T14:37:37.835Z,1.00
2019-06-27T14:40:09.783Z,1.00
2019-06-27T14:42:41.634Z,1.00
2019-06-27T14:45:13.358Z,1.00
2019-06-27T14:47:45.641Z,1.00
2019-06-27T14:50:17.480Z,1.00
2019-06-27T14:52:49.232Z,1.00
2019-06-27T14:55:20.984Z,1.00
2019-06-27T14:57:52.585Z,1.00
2019-06-27T15:00:25.797Z,1.00
2019-06-27T15:02:57.465Z,1.00
2019-06-27T15:05:33.011Z,1.00
2019-06-27T15:08:03.041Z,1.00
2019-06-27T15:10:35.986Z,1.00
2019-06-27T15:13:07.862Z,1.00
2019-06-27T15:15:39.547Z,1.00
2019-06-27T15:18:16.366Z,1.00
2019-06-27T15:20:45.141Z,1.00
2019-06-27T15:23:17.031Z,1.00
2019-06-27T15:25:48.682Z,1.00
2019-06-27T15:28:21.309Z,1.00
2019-06-27T15:30:52.909Z,1.00
2019-06-27T15:33:24.679Z,1.00
2019-06-27T15:35:56.423Z,1.00
2019-06-27T15:38:28.101Z,1.00
2019-06-27T15:40:59.742Z,1.00
2019-06-27T15:43:31.971Z,1.00
2019-06-27T15:46:03.644Z,1.00
2019-06-27T15:48:35.248Z,1.00
2019-06-27T15:51:08.708Z,1.00
2019-06-27T15:53:40.448Z,1.00
2019-06-27T15:56:17.796Z,1.00
2019-06-27T15:58:51.324Z,1.00
2019-06-27T16:01:25.562Z,1.00
2019-06-27T16:03:57.652Z,1.00
2019-06-27T16:06:30.412Z,1.00
2019-06-27T16:09:02.011Z,1.00
2019-06-27T16:11:35.604Z,1.00
2019-06-27T16:14:08.474Z,1.00
2019-06-27T16:16:40.489Z,1.00
2019-06-27T16:19:12.266Z,1.00
2019-06-27T16:21:43.926Z,1.00
2019-06-27T16:24:15.684Z,1.00
2019-06-27T16:26:50.484Z,1.00
2019-06-27T16:29:22.613Z,1.00
2019-06-27T16:31:57.614Z,1.00
2019-06-27T16:34:31.557Z,1.00
2019-06-27T16:37:09.984Z,1.00
2019-06-27T16:39:44.630Z,1.00
2019-06-27T16:42:16.470Z,1.00
2019-06-27T16:44:48.288Z,1.00
2019-06-27T16:47:20.160Z,1.00
2019-06-27T16:49:54.289Z,1.00
2019-06-27T16:52:27.062Z,1.00
2019-06-27T16:54:58.908Z,1.00
2019-06-27T16:57:33.782Z,1.00
2019-06-27T17:00:07.714Z,1.00
2019-06-27T17:02:39.756Z,1.00
2019-06-27T17:05:12.891Z,1.00
2019-06-27T17:07:45.618Z,1.00
2019-06-27T17:10:17.935Z,1.00
2019-06-27T17:12:54.201Z,1.00
2019-06-27T17:15:30.843Z,1.00
2019-06-27T17:18:04.261Z,1.00
2019-06-27T17:20:39.193Z,1.00
2019-06-27T17:23:10.988Z,1.00
2019-06-27T17:25:42.725Z,1.00
2019-06-27T17:28:14.682Z,1.00
2019-06-27T17:30:46.588Z,1.00
2019-06-27T17:33:18.364Z,1.00
2019-06-27T17:35:54.466Z,1.00
2019-06-27T17:38:27.224Z,1.00
2019-06-27T17:40:59.816Z,1.00
2019-06-27T17:43:31.762Z,1.00
2019-06-27T17:46:03.717Z,1.00
2019-06-27T17:48:38.441Z,1.00
2019-06-27T17:51:10.329Z,1.00
2019-06-27T17:53:42.755Z,1.00
2019-06-27T17:56:14.817Z,1.00
2019-06-27T17:58:47.153Z,1.00
2019-06-27T18:01:19.304Z,1.00
2019-06-27T18:03:51.008Z,1.00
2019-06-27T18:06:22.919Z,1.00
2019-06-27T18:08:54.625Z,1.00
2019-06-27T18:11:37.908Z,1.00
2019-06-27T18:14:09.877Z,1.00
2019-06-27T18:16:41.757Z,1.00
2019-06-27T18:19:28.283Z,1.00
2019-06-27T18:22:09.497Z,1.00
2019-06-27T18:24:51.244Z,1.00
2019-06-27T18:27:24.775Z,1.00
2019-06-27T18:29:59.382Z,1.00
2019-06-27T18:32:31.384Z,1.00
2019-06-27T18:35:03.203Z,1.00
2019-06-27T18:37:35.036Z,6.40
2019-06-27T18:40:10.709Z,1.00
2019-06-27T18:42:42.510Z,1.00
2019-06-27T18:45:19.849Z,1.00
2019-06-27T18:47:51.687Z,1.00
2019-06-27T18:50:23.827Z,1.00
2019-06-27T18:52:55.931Z,1.00
2019-06-27T18:55:27.802Z,1.50
2019-06-27T18:57:59.705Z,1.10
2019-06-27T19:00:31.621Z,2.40
2019-06-27T19:03:03.602Z,2.10
2019-06-27T19:05:35.634Z,2.10
2019-06-27T19:08:07.658Z,3.10
2019-06-27T19:10:39.664Z,2.40
2019-06-27T19:13:11.909Z,3.30
2019-06-27T19:15:43.904Z,3.60
2019-06-27T19:18:49.861Z,3.70
2019-06-27T19:21:27.277Z,2.80
2019-06-27T19:24:18.673Z,2.70
2019-06-27T19:26:51.520Z,2.60
2019-06-27T19:29:25.810Z,2.00
2019-06-27T19:31:57.128Z,2.10
2019-06-27T19:34:29.059Z,3.00
2019-06-27T19:37:01.000Z,1.40
2019-06-27T19:39:33.328Z,1.00
2019-06-27T19:42:14.931Z,1.00
2019-06-27T19:44:46.868Z,1.00
2019-06-27T19:47:31.379Z,1.40
2019-06-27T19:50:04.755Z,2.30
2019-06-27T19:52:36.914Z,11.60
2019-06-27T19:55:09.086Z,1.20
2019-06-27T19:57:40.942Z,1.00
2019-06-27T20:00:14.311Z,1.00
2019-06-27T20:02:48.315Z,1.00
2019-06-27T20:05:20.033Z,2.50
2019-06-27T20:07:52.011Z,3.30
2019-06-27T20:10:23.921Z,3.20
2019-06-27T20:12:55.603Z,2.90
2019-06-27T20:15:27.272Z,2.50
2019-06-27T20:17:59.074Z,3.60
2019-06-27T20:20:30.906Z,4.30
2019-06-27T20:23:02.680Z,5.00
2019-06-27T20:25:34.490Z,5.20
2019-06-27T20:28:06.258Z,6.20
2019-06-27T20:30:38.292Z,5.40
2019-06-27T20:33:10.598Z,4.90
2019-06-27T20:35:42.387Z,4.30
2019-06-27T20:38:14.205Z,4.80
2019-06-27T20:40:47.049Z,5.60
2019-06-27T20:43:18.719Z,5.20
2019-06-27T20:45:51.435Z,3.70
2019-06-27T20:48:23.939Z,5.20
2019-06-27T20:50:55.631Z,4.50
2019-06-27T20:53:28.250Z,4.90
2019-06-27T20:56:00.985Z,5.90
2019-06-27T20:58:32.679Z,5.90
2019-06-27T21:01:05.742Z,5.50
2019-06-27T21:03:37.749Z,5.40
2019-06-27T21:06:09.707Z,6.50
2019-06-27T21:08:50.820Z,5.60
2019-06-27T21:11:14.919Z,6.70
2019-06-27T21:13:46.757Z,5.80
2019-06-27T21:16:18.483Z,6.70
2019-06-27T21:18:50.202Z,7.20
2019-06-27T21:21:21.895Z,6.60
2019-06-27T21:23:53.615Z,7.00
2019-06-27T21:26:25.618Z,6.80
2019-06-27T21:28:57.448Z,7.70
2019-06-27T21:31:29.313Z,8.00
2019-06-27T21:34:01.077Z,8.90
2019-06-27T21:36:32.893Z,9.10
2019-06-27T21:39:07.927Z,9.80
2019-06-27T21:41:39.638Z,10.50
2019-06-27T21:44:11.348Z,11.30
2019-06-27T21:46:44.056Z,10.90
2019-06-27T21:49:16.779Z,11.70
2019-06-27T21:51:48.533Z,11.40
2019-06-27T21:54:20.679Z,12.40
2019-06-27T21:56:52.698Z,11.80
2019-06-27T21:59:24.367Z,12.20
2019-06-27T22:01:56.085Z,12.10
2019-06-27T22:04:30.468Z,12.90
2019-06-27T22:07:01.449Z,13.20
2019-06-27T22:09:33.704Z,11.50
2019-06-27T22:12:05.642Z,10.40
2019-06-27T22:14:37.481Z,11.00
2019-06-27T22:17:09.278Z,12.70
2019-06-27T22:19:41.128Z,12.00
2019-06-27T22:22:12.827Z,12.20
2019-06-27T22:24:44.453Z,11.80
2019-06-27T22:27:16.090Z,10.90
2019-06-27T22:29:48.013Z,10.40
2019-06-27T22:32:19.720Z,10.40
2019-06-27T22:34:51.391Z,10.20
2019-06-27T22:37:24.803Z,19.80
2019-06-27T22:40:14.384Z,10.70
2019-06-27T22:43:04.440Z,11.00
2019-06-27T22:45:53.577Z,11.20
2019-06-27T22:48:24.213Z,11.00
2019-06-27T22:51:20.484Z,9.70
2019-06-27T22:53:55.853Z,11.50
2019-06-27T22:56:27.486Z,11.90
2019-06-27T22:58:59.147Z,11.80
2019-06-27T23:01:30.885Z,12.30
2019-06-27T23:04:02.553Z,12.10
2019-06-27T23:06:34.366Z,13.00
2019-06-27T23:09:07.940Z,12.60
2019-06-27T23:11:39.865Z,11.90
2019-06-27T23:14:11.569Z,11.90
2019-06-27T23:16:43.286Z,12.30
2019-06-27T23:19:14.984Z,11.20
2019-06-27T23:21:46.682Z,12.00
2019-06-27T23:24:18.363Z,10.70
2019-06-27T23:26:50.164Z,10.60
2019-06-27T23:29:21.830Z,10.60
2019-06-27T23:31:53.506Z,12.00
2019-06-27T23:34:25.159Z,12.30
2019-06-27T23:36:56.770Z,10.60
2019-06-27T23:39:28.592Z,11.60
2019-06-27T23:42:00.938Z,11.00
2019-06-27T23:44:32.735Z,12.60
2019-06-27T23:47:04.404Z,11.30
2019-06-27T23:49:36.085Z,11.10
2019-06-27T23:52:07.793Z,11.80
2019-06-27T23:54:39.474Z,12.80
2019-06-27T23:57:12.087Z,12.10
2019-06-27T23:59:46.837Z,13.20
